IWINK LIPB-HFAI

Flight info

Callsign IWINK
Flight time N/A
Altitude 5500
Route DCT
Aircraft AS50/L-VGDW/C

Departure

Time 2026-04-17 11:11
Airport Bolzano Airport (LIPB)

Arrival

Time N/A
Airport HFAI
Time Latitude Longitude Altitude Speed Heading
2026-04-17 11:07 46.46127 11.32969 814 ft 0 kts 360°
2026-04-17 11:10 46.46180 11.32876 847 ft 31 kts 315°
2026-04-17 11:10 46.46550 11.32624 1135 ft 85 kts 343°
2026-04-17 11:11 46.47169 11.32227 1366 ft 113 kts 330°
2026-04-17 11:11 46.47888 11.31592 1561 ft 123 kts 326°
2026-04-17 11:11 46.48579 11.30817 1731 ft 132 kts 320°
2026-04-17 11:11 46.49260 11.29908 1947 ft 130 kts 316°
2026-04-17 11:12 46.49869 11.28976 2210 ft 129 kts 311°
2026-04-17 11:12 46.50467 11.28023 2450 ft 129 kts 313°
2026-04-17 11:12 46.51058 11.27071 2771 ft 124 kts 310°
2026-04-17 11:12 46.51734 11.26183 2720 ft 144 kts 326°
2026-04-17 11:13 46.52468 11.25160 2672 ft 146 kts 291°
2026-04-17 11:13 46.52026 11.23965 2844 ft 138 kts 207°
2026-04-17 11:13 46.51228 11.24106 3358 ft 118 kts 145°
2026-04-17 11:13 46.50373 11.24174 3561 ft 131 kts 190°
2026-04-17 11:14 46.49516 11.23915 3878 ft 130 kts 181°
2026-04-17 11:14 46.48581 11.23899 3997 ft 140 kts 176°
2026-04-17 11:14 46.47579 11.23680 4024 ft 146 kts 194°
2026-04-17 11:14 46.46636 11.23311 4300 ft 137 kts 190°
2026-04-17 11:15 46.45673 11.23072 4395 ft 144 kts 189°
2026-04-17 11:15 46.44709 11.22743 4532 ft 144 kts 190°
2026-04-17 11:15 46.43750 11.22399 4713 ft 141 kts 197°
2026-04-17 11:15 46.42868 11.21810 4903 ft 139 kts 207°
2026-04-17 11:16 46.42058 11.21034 5016 ft 143 kts 216°
2026-04-17 11:16 46.41287 11.20078 5063 ft 145 kts 219°
2026-04-17 11:16 46.40472 11.19184 5079 ft 149 kts 217°
2026-04-17 11:16 46.39679 11.18201 5046 ft 151 kts 221°
2026-04-17 11:17 46.38875 11.17239 5073 ft 150 kts 217°
2026-04-17 11:17 46.38016 11.16393 5094 ft 150 kts 210°
2026-04-17 11:17 46.37113 11.15642 5116 ft 149 kts 209°
2026-04-17 11:17 46.36211 11.14896 5121 ft 149 kts 209°
2026-04-17 11:18 46.35310 11.14092 4956 ft 158 kts 212°
2026-04-17 11:18 46.34379 11.13195 4696 ft 164 kts 214°
2026-04-17 11:18 46.33449 11.12195 4446 ft 164 kts 219°
2026-04-17 11:18 46.32569 11.11147 4121 ft 169 kts 219°
2026-04-17 11:19 46.31600 11.10211 3941 ft 161 kts 210°
2026-04-17 11:19 46.30665 11.09481 4022 ft 149 kts 208°
2026-04-17 11:19 46.29747 11.08905 4239 ft 139 kts 195°
2026-04-17 11:19 46.28802 11.08701 4451 ft 135 kts 183°
2026-04-17 11:20 46.27898 11.08609 4760 ft 130 kts 180°
2026-04-17 11:20 46.26979 11.08569 4908 ft 136 kts 178°
2026-04-17 11:20 46.25991 11.08509 4922 ft 145 kts 182°
2026-04-17 11:20 46.24981 11.08238 4868 ft 152 kts 190°
2026-04-17 11:21 46.23948 11.07931 4878 ft 149 kts 190°
2026-04-17 11:21 46.22946 11.07637 4958 ft 146 kts 190°
2026-04-17 11:21 46.22055 11.07358 5396 ft 127 kts 187°
2026-04-17 11:21 46.21131 11.07088 5416 ft 141 kts 191°
2026-04-17 11:22 46.20173 11.06812 5573 ft 138 kts 188°
2026-04-17 11:22 46.19224 11.06651 5714 ft 141 kts 184°
2026-04-17 11:22 46.18264 11.06367 5836 ft 140 kts 199°
2026-04-17 11:22 46.17381 11.05782 5979 ft 140 kts 202°
2026-04-17 11:23 46.16468 11.05360 6144 ft 140 kts 192°
2026-04-17 11:23 46.15523 11.04975 6346 ft 135 kts 202°
2026-04-17 11:23 46.14749 11.04378 6729 ft 119 kts 210°
2026-04-17 11:23 46.14201 11.04034 6909 ft 51 kts 192°
2026-04-17 11:24 46.14053 11.03943 6874 ft 14 kts 137°
2026-04-17 11:24 46.14008 11.04070 6853 ft 14 kts 182°
2026-04-17 11:24 46.13949 11.04106 6898 ft 24 kts 191°
2026-04-17 11:24 46.13893 11.04172 6969 ft 23 kts 187°
2026-04-17 11:25 46.13891 11.04177 6972 ft 22 kts 184°
2026-04-17 11:25 46.14101 11.04769 6683 ft 109 kts 45°
2026-04-17 11:25 46.14839 11.05283 6004 ft 133 kts 25°
2026-04-17 11:25 46.15721 11.05739 5111 ft 141 kts 22°
2026-04-17 11:26 46.16602 11.06205 4420 ft 129 kts 26°
2026-04-17 11:26 46.17339 11.06767 3911 ft 115 kts 26°
2026-04-17 11:26 46.17982 11.07212 3602 ft 86 kts 18°
2026-04-17 11:26 46.18457 11.07526 3326 ft 60 kts
2026-04-17 11:27 46.18662 11.07688 3109 ft 9 kts 221°
2026-04-17 11:27 46.18616 11.07621 3124 ft 9 kts 198°
2026-04-17 11:27 46.18584 11.07585 3101 ft 2 kts 201°
2026-04-17 11:27 46.18578 11.07576 3089 ft 0 kts 210°
2026-04-17 11:34 46.18569 11.07578 3123 ft 12 kts 183°
2026-04-17 11:34 46.18359 11.07341 3387 ft 69 kts 230°
2026-04-17 11:34 46.17975 11.06738 3770 ft 87 kts 220°
2026-04-17 11:34 46.17549 11.06169 4267 ft 87 kts 211°
2026-04-17 11:35 46.17057 11.05675 4662 ft 97 kts 229°
2026-04-17 11:35 46.16968 11.04680 4944 ft 111 kts 261°
2026-04-17 11:35 46.16690 11.03543 5051 ft 127 kts 241°
2026-04-17 11:35 46.16174 11.02463 5152 ft 131 kts 229°
2026-04-17 11:36 46.15558 11.01512 5261 ft 133 kts 226°
2026-04-17 11:36 46.15070 11.00326 5117 ft 145 kts 252°
2026-04-17 11:36 46.14808 10.98873 4367 ft 155 kts 261°
2026-04-17 11:36 46.14364 10.97559 3540 ft 148 kts 226°
2026-04-17 11:37 46.13557 10.97007 3165 ft 103 kts 221°
2026-04-17 11:37 46.13620 10.96585 3001 ft 52 kts 331°
2026-04-17 11:37 46.13883 10.96424 2822 ft 23 kts 251°
2026-04-17 11:37 46.13879 10.96314 2757 ft 3 kts 183°
2026-04-17 11:38 46.13876 10.96314 2735 ft 1 kts 179°
2026-04-17 11:38 46.13875 10.96314 2733 ft 0 kts 181°
2026-04-17 11:39 46.13862 10.96289 2810 ft 10 kts 112°
2026-04-17 11:39 46.13831 10.96338 2923 ft 23 kts 127°
2026-04-17 11:39 46.13649 10.96404 3321 ft 29 kts 202°
2026-04-17 11:40 46.13586 10.96311 3684 ft 40 kts 324°
2026-04-17 11:40 46.13873 10.95924 4055 ft 70 kts 333°
2026-04-17 11:40 46.14370 10.95791 4499 ft 77 kts 359°
2026-04-17 11:40 46.14881 10.95262 4706 ft 106 kts 308°
2026-04-17 11:41 46.15223 10.94364 5142 ft 94 kts 289°
2026-04-17 11:41 46.15445 10.93720 5794 ft 72 kts 292°
2026-04-17 11:41 46.15674 10.93062 6265 ft 78 kts 284°
2026-04-17 11:41 46.15866 10.92369 6747 ft 79 kts 291°
2026-04-17 11:42 46.16118 10.91650 7220 ft 81 kts 292°
2026-04-17 11:42 46.16427 10.90950 7616 ft 86 kts 303°
2026-04-17 11:42 46.16819 10.90288 7965 ft 88 kts 308°
2026-04-17 11:42 46.17099 10.89505 7984 ft 89 kts 296°
2026-04-17 11:43 46.17369 10.88672 7888 ft 95 kts 299°
2026-04-17 11:43 46.17713 10.87848 7839 ft 94 kts 309°
2026-04-17 11:43 46.18169 10.87156 7755 ft 89 kts 312°
2026-04-17 11:43 46.18023 10.86826 7893 ft 58 kts 165°
2026-04-17 11:44 46.17679 10.87132 7577 ft 50 kts 128°
2026-04-17 11:44 46.17430 10.87408 7308 ft 44 kts 124°
2026-04-17 11:44 46.17292 10.87558 7127 ft 7 kts 124°
2026-04-17 11:44 46.17262 10.87574 7053 ft 5 kts 128°
2026-04-17 11:45 46.17251 10.87585 7037 ft 0 kts 141°
2026-04-17 11:46 46.17357 10.87367 7042 ft 68 kts 302°
2026-04-17 11:46 46.17493 10.86516 7114 ft 107 kts 269°
2026-04-17 11:47 46.17353 10.85358 7130 ft 126 kts 257°
2026-04-17 11:47 46.17189 10.84155 7060 ft 116 kts 261°
2026-04-17 11:47 46.17018 10.83117 7078 ft 97 kts 259°
2026-04-17 11:47 46.16874 10.82301 7014 ft 69 kts 261°
2026-04-17 11:48 46.16770 10.81719 7047 ft 56 kts 255°
2026-04-17 11:48 46.16687 10.81193 6956 ft 45 kts 265°
2026-04-17 11:48 46.16679 10.80898 6861 ft 13 kts 274°
2026-04-17 11:48 46.16700 10.80801 6847 ft 10 kts 228°
2026-04-17 11:49 46.16694 10.80784 6828 ft 0 kts 196°
2026-04-17 11:50 46.16705 10.80508 6942 ft 32 kts 193°
2026-04-17 11:50 46.16161 10.78573 6564 ft 105 kts 258°
2026-04-17 11:51 46.16806 10.76882 6765 ft 83 kts 355°
2026-04-17 11:51 46.17436 10.76943 6741 ft 94 kts 15°
2026-04-17 11:51 46.17991 10.77577 6684 ft 116 kts 50°
2026-04-17 11:51 46.18444 10.78574 6659 ft 124 kts 55°
2026-04-17 11:52 46.19068 10.79442 6679 ft 121 kts 36°
2026-04-17 11:52 46.19762 10.80106 6740 ft 119 kts 32°
2026-04-17 11:52 46.20482 10.80715 6780 ft 120 kts 30°
2026-04-17 11:52 46.21192 10.81298 6880 ft 112 kts 31°
2026-04-17 11:53 46.21836 10.81874 6522 ft 105 kts 38°
2026-04-17 11:53 46.22381 10.82412 6231 ft 84 kts 39°
2026-04-17 11:53 46.22751 10.82823 6098 ft 48 kts 52°
2026-04-17 11:53 46.22872 10.83128 6310 ft 37 kts 88°
2026-04-17 11:54 46.22790 10.83507 6489 ft 49 kts 119°
2026-04-17 11:54 46.22645 10.83941 6700 ft 42 kts 112°
2026-04-17 11:54 46.22536 10.84310 6821 ft 42 kts 110°
2026-04-17 11:54 46.22458 10.84592 6871 ft 18 kts 86°
2026-04-17 11:55 46.22458 10.84600 6869 ft 17 kts 84°
2026-04-17 11:55 46.22473 10.84717 6893 ft 27 kts 108°
2026-04-17 11:55 46.22333 10.84904 6893 ft 32 kts 203°
2026-04-17 11:55 46.22239 10.84813 6873 ft 11 kts 295°
2026-04-17 11:56 46.22266 10.84768 6878 ft 11 kts 296°
2026-04-17 11:56 46.22292 10.84716 6862 ft 12 kts 295°
2026-04-17 11:56 46.22313 10.84298 6886 ft 32 kts 308°
2026-04-17 11:57 46.22518 10.84066 6651 ft 71 kts 302°
2026-04-17 11:57 46.23012 10.83335 6077 ft 126 kts 339°
2026-04-17 11:57 46.23804 10.83269 6338 ft 109 kts
2026-04-17 11:57 46.24453 10.83790 6527 ft 111 kts 43°
2026-04-17 11:58 46.25005 10.84889 5932 ft 150 kts 64°
2026-04-17 11:58 46.25292 10.86116 6479 ft 119 kts 77°
2026-04-17 11:58 46.25438 10.87141 7150 ft 101 kts 75°
2026-04-17 11:58 46.25558 10.88176 7647 ft 101 kts 72°
2026-04-17 11:59 46.25642 10.88983 8452 ft 76 kts 71°
2026-04-17 11:59 46.25760 10.89507 9099 ft 66 kts 58°
2026-04-17 11:59 46.25969 10.90435 8901 ft 133 kts 79°
2026-04-17 11:59 46.26121 10.91971 7565 ft 188 kts 84°
2026-04-17 12:00 46.26199 10.93843 6178 ft 194 kts 92°
2026-04-17 12:00 46.26214 10.95553 6004 ft 146 kts 86°
2026-04-17 12:00 46.26299 10.96859 6118 ft 120 kts 83°
2026-04-17 12:00 46.26448 10.98138 5655 ft 146 kts 80°
2026-04-17 12:01 46.26610 10.99627 4811 ft 162 kts 86°
2026-04-17 12:01 46.26727 11.01139 3904 ft 153 kts 86°
2026-04-17 12:01 46.26697 11.02660 2711 ft 160 kts 104°
2026-04-17 12:01 46.26894 11.03636 2748 ft 73 kts 317°
2026-04-17 12:02 46.27122 11.03148 2727 ft 56 kts 312°
2026-04-17 12:02 46.27568 11.03112 2660 ft 99 kts 22°
2026-04-17 12:02 46.28215 11.03977 2317 ft 139 kts 43°
2026-04-17 12:02 46.28782 11.05150 2200 ft 147 kts 65°
2026-04-17 12:03 46.29269 11.06429 2211 ft 142 kts 59°
2026-04-17 12:03 46.29827 11.07547 2479 ft 131 kts 56°
2026-04-17 12:03 46.30288 11.08654 2790 ft 124 kts 63°
2026-04-17 12:03 46.30615 11.09780 3075 ft 120 kts 69°
2026-04-17 12:04 46.30878 11.10926 3191 ft 125 kts 73°
2026-04-17 12:04 46.31161 11.12059 3554 ft 117 kts 65°
2026-04-17 12:04 46.31602 11.13025 3886 ft 115 kts 48°
2026-04-17 12:04 46.32136 11.13851 4273 ft 110 kts 49°
2026-04-17 12:05 46.32633 11.14697 4561 ft 115 kts 51°
2026-04-17 12:05 46.33099 11.15639 4826 ft 118 kts 54°
2026-04-17 12:05 46.33514 11.16694 5046 ft 122 kts 67°
2026-04-17 12:05 46.33635 11.17934 5153 ft 129 kts 91°
2026-04-17 12:06 46.33841 11.19181 5332 ft 128 kts 57°
2026-04-17 12:06 46.34423 11.19987 5789 ft 110 kts 26°
2026-04-17 12:06 46.35021 11.20737 5573 ft 149 kts 50°
2026-04-17 12:06 46.35737 11.21923 4939 ft 164 kts 50°
2026-04-17 12:07 46.36390 11.23210 4556 ft 157 kts 61°
2026-04-17 12:07 46.36922 11.24602 3999 ft 164 kts 65°
2026-04-17 12:07 46.37382 11.26040 3688 ft 150 kts 69°
2026-04-17 12:07 46.37896 11.27323 3400 ft 148 kts 57°
2026-04-17 12:08 46.38548 11.28508 2953 ft 154 kts 50°
2026-04-17 12:08 46.39336 11.29510 2734 ft 143 kts 40°
2026-04-17 12:08 46.40094 11.30418 2525 ft 142 kts 44°
2026-04-17 12:08 46.40870 11.31326 2270 ft 145 kts 36°
2026-04-17 12:09 46.41771 11.31970 1976 ft 149 kts 17°
2026-04-17 12:09 46.42814 11.32218 1606 ft 154 kts
2026-04-17 12:09 46.43855 11.32419 1278 ft 146 kts
2026-04-17 12:09 46.44786 11.32551 1175 ft 121 kts
2026-04-17 12:10 46.45519 11.32679 1064 ft 84 kts 13°
2026-04-17 12:10 46.45932 11.32743 919 ft 35 kts 46°
2026-04-17 12:10 46.45987 11.32900 832 ft 10 kts 160°
2026-04-17 12:10 46.45971 11.32921 821 ft 5 kts 276°
2026-04-17 12:11 46.45971 11.32918 819 ft 0 kts 288°